Terminal Aerodrome Forecast
Issued by NWS

Home | Current Version | Previous Version | Text Only | Print | Product List | Glossary Off
Versions: 1 2 3 4 5 6 7 8 9 10 11 12

000
FTUS43 KICT 232322
TAFSLN
TAF
KSLN 232322Z 2400/2424 15012KT P6SM SKC
     FM241500 17016G23KT P6SM SCT050=

USA.gov is the U.S. government's official web portal to all federal, state and local government web resources and services.